Time;durP1;ratioP1;P1;durP2;ratioP2;P2;SDS_P1;SDS_P2;PMS_P1;PMS_P2;Temp;Humidity;BMP_temperature;BMP_pressure;BME280_temperature;BME280_humidity;BME280_pressure;Samples;Min_cycle;Max_cycle;Signal;HPM_P1;HPM_P2
2021/11/11 00:01:24;;;;;;;3.72;1.58;;;20.00;61.00;;;;;;6184526;23;20135;-81
2021/11/11 00:03:50;;;;;;;5.07;1.60;;;20.00;62.00;;;;;;6184211;23;20189;-82
2021/11/11 00:06:16;;;;;;;6.18;1.70;;;20.00;61.10;;;;;;6184040;23;20593;-82
2021/11/11 00:08:41;;;;;;;6.38;2.05;;;20.00;61.20;;;;;;6185957;23;20142;-81
2021/11/11 00:11:07;;;;;;;4.60;1.70;;;20.00;60.90;;;;;;6185957;23;20197;-82
2021/11/11 00:13:33;;;;;;;6.97;1.98;;;20.00;61.50;;;;;;6186168;23;20189;-82
2021/11/11 00:15:58;;;;;;;4.82;1.95;;;20.00;62.70;;;;;;6186099;23;20197;-82
2021/11/11 00:18:24;;;;;;;5.10;1.42;;;19.90;61.00;;;;;;6186031;23;20147;-82
2021/11/11 00:20:50;;;;;;;7.25;2.10;;;20.00;60.90;;;;;;6186052;23;20593;-82
2021/11/11 00:23:15;;;;;;;6.15;1.98;;;19.90;61.10;;;;;;6186079;23;20139;-82
2021/11/11 00:25:41;;;;;;;5.68;2.00;;;20.00;61.00;;;;;;6161230;23;20575;-82
2021/11/11 00:28:07;;;;;;;5.47;1.70;;;19.90;61.00;;;;;;6187206;23;20135;-82
2021/11/11 00:30:33;;;;;;;6.70;2.00;;;19.90;60.80;;;;;;6185920;23;20143;-82
2021/11/11 00:32:58;;;;;;;6.68;1.92;;;20.00;61.10;;;;;;6185797;23;20236;-83
2021/11/11 00:35:26;;;;;;;4.72;1.70;;;20.00;61.20;;;;;;6186320;23;20621;-81
2021/11/11 00:37:52;;;;;;;6.00;1.63;;;20.00;61.20;;;;;;6185854;23;20467;-82
2021/11/11 00:40:18;;;;;;;6.40;2.05;;;20.00;61.60;;;;;;6185862;23;20139;-82
2021/11/11 00:42:45;;;;;;;5.85;1.67;;;20.00;61.00;;;;;;6185754;23;20241;-82
2021/11/11 00:45:11;;;;;;;6.03;1.88;;;19.90;60.90;;;;;;6185891;23;20629;-82
2021/11/11 00:47:37;;;;;;;5.07;2.30;;;19.90;61.20;;;;;;6211153;23;20170;-81
2021/11/11 00:50:04;;;;;;;5.97;2.20;;;19.90;61.70;;;;;;6185909;23;20216;-82
2021/11/11 00:52:31;;;;;;;7.15;1.83;;;19.90;61.80;;;;;;6185727;23;20139;-82
2021/11/11 00:54:57;;;;;;;7.88;1.95;;;19.90;61.10;;;;;;6210694;23;20578;-82
2021/11/11 00:57:23;;;;;;;5.03;1.83;;;19.90;61.20;;;;;;6185649;23;20388;-82
2021/11/11 00:59:48;;;;;;;8.98;1.95;;;19.90;61.50;;;;;;6210961;23;20151;-82
2021/11/11 01:02:15;;;;;;;6.20;1.60;;;19.90;61.40;;;;;;6185612;23;20182;-82
2021/11/11 01:04:41;;;;;;;5.40;1.85;;;19.90;61.40;;;;;;6210609;23;20285;-82
2021/11/11 01:07:07;;;;;;;5.80;1.80;;;19.90;61.50;;;;;;6161087;23;20162;-82
2021/11/11 01:09:33;;;;;;;8.02;1.73;;;19.90;61.70;;;;;;6185348;23;20186;-82
2021/11/11 01:11:58;;;;;;;3.70;1.48;;;19.90;61.60;;;;;;6185885;23;20161;-82
2021/11/11 01:14:24;;;;;;;6.90;1.80;;;20.00;61.50;;;;;;6185548;23;20493;-81
2021/11/11 01:16:52;;;;;;;4.68;1.85;;;19.90;61.40;;;;;;6185574;23;20131;-82
2021/11/11 01:19:18;;;;;;;4.38;1.77;;;20.00;61.60;;;;;;6186790;23;20127;-82
2021/11/11 01:21:44;;;;;;;3.45;2.00;;;19.90;61.40;;;;;;6185458;23;20135;-82
2021/11/11 01:24:09;;;;;;;5.07;1.70;;;19.80;61.30;;;;;;6186702;23;20173;-82
2021/11/11 01:26:35;;;;;;;4.75;1.77;;;19.90;61.20;;;;;;6210535;23;20155;-81
2021/11/11 01:29:01;;;;;;;3.28;1.60;;;19.80;61.40;;;;;;6185313;23;20155;-82
2021/11/11 01:31:28;;;;;;;7.20;1.85;;;19.90;61.80;;;;;;6185751;23;20192;-83
2021/11/11 01:33:54;;;;;;;2.75;1.63;;;19.90;61.20;;;;;;6185599;23;20575;-81
2021/11/11 01:36:19;;;;;;;5.93;1.88;;;19.80;61.30;;;;;;6186815;23;20578;-82
2021/11/11 01:38:45;;;;;;;7.75;1.50;;;19.80;62.00;;;;;;6185944;23;20131;-81
2021/11/11 01:41:11;;;;;;;2.78;1.48;;;19.80;61.50;;;;;;6185677;23;20143;-82
2021/11/11 01:43:37;;;;;;;4.70;1.80;;;19.80;61.40;;;;;;6185251;23;20134;-82
2021/11/11 01:46:02;;;;;;;4.28;1.42;;;19.80;61.30;;;;;;6185250;23;20575;-82
2021/11/11 01:48:28;;;;;;;3.65;1.75;;;19.90;61.50;;;;;;6185291;23;20139;-82
2021/11/11 01:50:54;;;;;;;3.08;1.40;;;19.90;61.40;;;;;;6187326;23;20146;-81
2021/11/11 01:53:20;;;;;;;4.63;1.73;;;19.90;61.40;;;;;;6160617;23;20178;-81
2021/11/11 01:55:46;;;;;;;5.10;1.90;;;19.90;61.00;;;;;;6160206;23;20525;-82
2021/11/11 01:58:11;;;;;;;4.40;1.90;;;19.80;60.70;;;;;;6160258;23;20135;-82
2021/11/11 02:00:42;;;;;;;3.83;1.50;;;19.90;60.90;;;;;;6186579;23;20131;-82
2021/11/11 02:03:08;;;;;;;4.80;1.85;;;19.80;60.50;;;;;;6185030;23;20131;-82
2021/11/11 02:05:34;;;;;;;4.22;1.75;;;19.80;60.70;;;;;;6185927;23;20146;-82
2021/11/11 02:08:00;;;;;;;4.07;1.67;;;19.80;60.70;;;;;;6160624;23;20158;-82
2021/11/11 02:10:26;;;;;;;4.47;1.80;;;19.80;60.40;;;;;;6184815;23;20633;-81
2021/11/11 02:12:51;;;;;;;5.38;1.75;;;19.90;60.10;;;;;;6209844;23;20193;-82
2021/11/11 02:15:18;;;;;;;6.28;1.80;;;19.90;60.00;;;;;;6159921;23;20482;-82
2021/11/11 02:17:44;;;;;;;6.28;1.83;;;19.90;59.90;;;;;;6185062;23;20158;-82
2021/11/11 02:20:12;;;;;;;5.32;1.90;;;19.90;59.70;;;;;;6186355;23;20127;-82
2021/11/11 02:22:38;;;;;;;3.00;1.73;;;19.90;59.60;;;;;;6160217;23;20633;-82
2021/11/11 02:25:09;;;;;;;5.85;1.70;;;19.90;59.70;;;;;;6186375;23;20143;-82
2021/11/11 02:27:34;;;;;;;3.63;1.75;;;19.80;59.80;;;;;;6184891;23;20500;-82
2021/11/11 02:30:00;;;;;;;6.93;1.88;;;19.80;59.70;;;;;;6186214;23;20131;-82
2021/11/11 02:32:31;;;;;;;6.18;1.98;;;19.80;59.80;;;;;;6159844;23;20156;-82
2021/11/11 02:34:57;;;;;;;2.95;1.50;;;19.80;60.10;;;;;;6184756;23;20135;-82
2021/11/11 02:37:26;;;;;;;3.92;1.85;;;19.80;59.80;;;;;;6186256;23;20218;-81
2021/11/11 02:39:51;;;;;;;3.50;1.88;;;19.80;60.30;;;;;;6184875;23;20142;-82
2021/11/11 02:42:18;;;;;;;3.25;1.80;;;19.80;60.00;;;;;;6184823;23;20150;-82
2021/11/11 02:44:44;;;;;;;7.28;2.00;;;19.80;60.10;;;;;;6209624;23;20151;-81
2021/11/11 02:47:09;;;;;;;3.83;1.80;;;19.80;60.00;;;;;;6184671;23;20189;-82
2021/11/11 02:49:36;;;;;;;3.78;1.60;;;19.80;60.00;;;;;;6184669;23;20526;-82
2021/11/11 02:52:02;;;;;;;5.30;1.85;;;19.80;60.10;;;;;;6210017;23;20534;-82
2021/11/11 02:54:28;;;;;;;4.97;1.80;;;19.80;60.10;;;;;;6184886;23;20594;-82
2021/11/11 02:56:53;;;;;;;3.72;1.60;;;19.80;60.10;;;;;;6186457;23;20135;-82
2021/11/11 02:59:19;;;;;;;5.60;1.67;;;19.80;60.10;;;;;;6209512;23;20151;-82
2021/11/11 03:01:44;;;;;;;5.55;1.70;;;19.80;60.10;;;;;;6184436;23;20173;-82
2021/11/11 03:04:10;;;;;;;4.43;1.60;;;19.80;60.10;;;;;;6184582;23;20134;-82
2021/11/11 03:06:39;;;;;;;4.90;1.70;;;19.80;60.20;;;;;;6184475;23;20139;-82
2021/11/11 03:09:05;;;;;;;6.28;1.85;;;19.80;60.30;;;;;;6184801;23;20139;-82
2021/11/11 03:11:31;;;;;;;5.78;1.95;;;19.80;60.40;;;;;;6216010;23;20187;-82
2021/11/11 03:13:57;;;;;;;6.25;1.88;;;19.80;60.40;;;;;;6215827;23;20208;-82
2021/11/11 03:16:22;;;;;;;3.35;1.60;;;19.80;60.40;;;;;;6189504;23;20138;-81
2021/11/11 03:18:49;;;;;;;4.50;1.90;;;19.80;60.50;;;;;;6215925;23;20184;-82
2021/11/11 03:21:15;;;;;;;4.38;1.77;;;19.70;60.40;;;;;;6215875;23;20135;-82
2021/11/11 03:23:40;;;;;;;4.15;1.73;;;19.70;60.40;;;;;;6189452;23;20134;-82
2021/11/11 03:26:06;;;;;;;7.22;1.80;;;19.80;60.50;;;;;;6190201;23;20562;-82
2021/11/11 03:28:32;;;;;;;4.97;1.92;;;19.70;60.50;;;;;;6189226;23;20197;-82
2021/11/11 03:30:57;;;;;;;3.90;1.60;;;19.80;60.70;;;;;;6189229;23;20142;-82
2021/11/11 03:33:23;;;;;;;3.42;1.75;;;19.70;60.70;;;;;;6189321;23;20177;-81
2021/11/11 03:35:49;;;;;;;3.72;1.85;;;19.70;60.50;;;;;;6189211;23;20146;-82
2021/11/11 03:38:15;;;;;;;8.82;2.00;;;19.70;60.60;;;;;;6189134;23;20150;-82
2021/11/11 03:40:43;;;;;;;4.65;1.90;;;19.70;60.60;;;;;;6189421;23;20134;-82
2021/11/11 03:43:10;;;;;;;3.33;2.03;;;19.70;60.90;;;;;;6189477;23;20145;-82
2021/11/11 03:45:35;;;;;;;4.07;1.70;;;19.70;60.80;;;;;;6189876;23;20130;-82
2021/11/11 03:48:02;;;;;;;3.38;1.58;;;19.70;60.70;;;;;;6189333;23;20135;-82
2021/11/11 03:50:28;;;;;;;4.10;1.63;;;19.70;60.80;;;;;;6189090;23;20142;-82
2021/11/11 03:52:55;;;;;;;1.98;1.38;;;19.70;60.80;;;;;;6164341;23;20181;-81
2021/11/11 03:55:23;;;;;;;3.63;1.58;;;19.70;60.80;;;;;;6165021;23;20153;-82
2021/11/11 03:57:50;;;;;;;4.88;1.50;;;19.70;60.70;;;;;;6214124;23;20157;-82
2021/11/11 04:00:16;;;;;;;3.42;1.50;;;19.70;60.80;;;;;;6164447;23;20458;-82
2021/11/11 04:02:42;;;;;;;3.80;1.77;;;19.70;60.80;;;;;;6164696;23;20192;-82
2021/11/11 04:05:08;;;;;;;4.63;2.00;;;19.70;60.80;;;;;;6189391;23;20154;-82
2021/11/11 04:07:34;;;;;;;5.15;1.73;;;19.70;60.90;;;;;;6189291;23;20535;-81
2021/11/11 04:09:59;;;;;;;5.40;1.88;;;19.70;60.80;;;;;;6184514;23;20198;-81
2021/11/11 04:12:25;;;;;;;4.00;1.80;;;19.70;59.90;;;;;;6183825;23;20166;-81
2021/11/11 04:14:51;;;;;;;3.33;1.60;;;19.70;59.30;;;;;;6184170;23;20158;-82
2021/11/11 04:17:16;;;;;;;3.78;1.45;;;19.70;59.20;;;;;;6159103;23;20197;-82
2021/11/11 04:19:42;;;;;;;5.13;1.50;;;19.70;59.30;;;;;;6184066;23;20135;-82
2021/11/11 04:22:08;;;;;;;3.63;1.63;;;19.70;59.50;;;;;;6184382;23;20153;-81
2021/11/11 04:24:33;;;;;;;2.50;1.25;;;19.70;59.40;;;;;;6183946;23;20221;-81
2021/11/11 04:27:13;;;;;;;3.00;1.60;;;19.70;59.70;;;;;;6183953;23;20140;-82
2021/11/11 04:29:44;;;;;;;3.15;1.50;;;19.70;59.70;;;;;;6184294;23;20138;-82
2021/11/11 04:32:12;;;;;;;2.13;1.33;;;19.60;59.70;;;;;;6185503;23;20135;-81
2021/11/11 04:34:40;;;;;;;3.58;1.48;;;19.70;60.40;;;;;;6184367;23;20174;-82
2021/11/11 04:40:13;;;;;;;2.20;1.70;;;19.60;60.30;;;;;;6184171;23;20572;-81
2021/11/11 04:46:11;;;;;;;3.17;1.40;;;19.60;60.30;;;;;;6163511;23;20281;-81
2021/11/11 04:51:12;;;;;;;4.72;1.50;;;19.60;60.20;;;;;;6163982;23;20185;-82
2021/11/11 05:01:48;;;;;;;3.45;1.67;;;19.60;60.80;;;;;;6185757;23;20589;-81
2021/11/11 05:04:13;;;;;;;1.83;1.20;;;19.60;60.90;;;;;;6162541;23;20234;-82
2021/11/11 05:06:39;;;;;;;3.13;1.42;;;19.60;60.50;;;;;;6185680;23;20174;-82
2021/11/11 05:09:05;;;;;;;2.65;1.52;;;19.60;60.80;;;;;;6185956;23;20169;-82
2021/11/11 05:11:31;;;;;;;2.85;1.30;;;19.50;60.70;;;;;;6190917;23;20138;-82
2021/11/11 05:13:57;;;;;;;3.13;1.60;;;19.60;60.90;;;;;;6190658;23;20166;-82
2021/11/11 05:16:23;;;;;;;3.60;1.58;;;19.60;61.00;;;;;;6190636;23;20550;-82
2021/11/11 05:18:49;;;;;;;2.22;1.42;;;19.60;61.00;;;;;;6190874;23;20139;-81
2021/11/11 05:21:15;;;;;;;2.88;1.52;;;19.60;60.40;;;;;;6217114;23;20629;-82
2021/11/11 05:23:41;;;;;;;2.78;1.60;;;19.50;60.10;;;;;;6191303;23;20160;-81
2021/11/11 05:26:07;;;;;;;2.95;1.38;;;19.50;60.40;;;;;;6190649;23;20157;-82
2021/11/11 05:28:33;;;;;;;3.20;1.70;;;19.60;61.20;;;;;;6216965;23;20455;-81
2021/11/11 05:30:59;;;;;;;3.17;1.40;;;19.60;61.20;;;;;;6166249;23;20164;-81
2021/11/11 05:33:25;;;;;;;4.63;1.50;;;19.50;60.40;;;;;;6190343;23;20190;-82
2021/11/11 05:35:50;;;;;;;4.03;1.60;;;19.50;60.70;;;;;;6216952;23;20141;-81
2021/11/11 05:38:17;;;;;;;3.30;1.77;;;19.50;60.90;;;;;;6215331;23;20230;-82
2021/11/11 05:40:42;;;;;;;1.60;1.20;;;19.60;61.20;;;;;;6165265;23;20154;-82
2021/11/11 05:43:08;;;;;;;1.85;1.38;;;19.50;60.30;;;;;;6190365;23;20660;-82
2021/11/11 05:45:34;;;;;;;2.97;1.40;;;19.50;60.70;;;;;;6165430;23;20184;-81
2021/11/11 05:47:59;;;;;;;3.90;1.38;;;19.50;61.10;;;;;;6190331;23;20138;-82
2021/11/11 05:50:25;;;;;;;2.88;1.38;;;19.60;61.00;;;;;;6165488;23;20161;-82
2021/11/11 05:52:51;;;;;;;3.03;1.50;;;19.50;60.50;;;;;;6216638;23;20237;-81
2021/11/11 05:55:17;;;;;;;2.55;1.40;;;19.50;60.50;;;;;;6190533;23;20154;-82
2021/11/11 05:57:43;;;;;;;1.80;1.38;;;19.50;60.40;;;;;;6216724;23;20134;-81
2021/11/11 06:00:10;;;;;;;3.17;1.50;;;19.50;60.50;;;;;;6190167;23;20130;-82
2021/11/11 06:02:36;;;;;;;3.35;1.60;;;19.60;60.80;;;;;;6165334;23;20150;-82
2021/11/11 06:05:02;;;;;;;3.25;1.77;;;19.50;61.00;;;;;;6164744;23;20158;-82
2021/11/11 06:07:28;;;;;;;2.33;1.30;;;19.50;61.00;;;;;;6190288;23;20134;-82
2021/11/11 06:09:53;;;;;;;2.78;1.60;;;19.50;60.70;;;;;;6184859;23;20252;-82
2021/11/11 06:12:19;;;;;;;2.85;1.40;;;19.50;61.00;;;;;;6210420;23;20147;-82
2021/11/11 06:14:45;;;;;;;2.42;1.30;;;19.60;60.50;;;;;;6185423;23;20246;-82
2021/11/11 06:17:10;;;;;;;2.95;1.33;;;19.50;60.80;;;;;;6184995;23;20141;-82
2021/11/11 06:19:37;;;;;;;2.75;1.38;;;19.40;60.90;;;;;;6184971;23;20131;-82
2021/11/11 06:22:04;;;;;;;3.03;1.52;;;19.40;60.70;;;;;;6160991;23;20155;-81
2021/11/11 06:24:29;;;;;;;4.15;1.48;;;19.50;60.90;;;;;;6160265;23;20215;-82
2021/11/11 06:26:56;;;;;;;2.42;1.40;;;19.50;60.70;;;;;;6184985;23;20230;-82
2021/11/11 06:29:22;;;;;;;3.33;1.40;;;19.50;60.00;;;;;;6185344;23;20486;-82
2021/11/11 06:31:48;;;;;;;2.15;1.10;;;19.50;60.70;;;;;;6186323;23;20139;-82
2021/11/11 06:34:13;;;;;;;3.00;1.13;;;19.50;61.30;;;;;;6184942;23;20178;-81
2021/11/11 06:36:39;;;;;;;3.20;1.27;;;19.40;60.00;;;;;;6184817;23;20135;-81
2021/11/11 06:39:05;;;;;;;3.38;1.50;;;19.50;60.30;;;;;;6186198;23;20157;-82
2021/11/11 06:41:31;;;;;;;2.65;1.27;;;19.50;60.80;;;;;;6185007;23;20163;-81
2021/11/11 06:43:56;;;;;;;3.05;1.45;;;19.40;60.40;;;;;;6184589;23;20155;-82
2021/11/11 06:46:23;;;;;;;2.08;1.40;;;19.50;60.80;;;;;;6159857;23;20159;-81
2021/11/11 06:48:48;;;;;;;2.35;1.33;;;19.50;60.50;;;;;;6184596;23;20569;-81
2021/11/11 06:51:14;;;;;;;2.35;1.38;;;19.50;59.80;;;;;;6186051;23;20186;-81
2021/11/11 06:53:40;;;;;;;5.05;1.40;;;19.50;60.00;;;;;;6184999;23;20193;-81
2021/11/11 06:56:06;;;;;;;2.60;1.30;;;19.50;60.30;;;;;;6184709;23;20209;-81
2021/11/11 06:58:31;;;;;;;2.85;1.20;;;19.50;60.50;;;;;;6184600;23;20139;-82
2021/11/11 07:00:59;;;;;;;2.90;1.23;;;19.50;60.20;;;;;;6184549;23;20158;-82
2021/11/11 07:03:25;;;;;;;1.75;1.40;;;19.50;60.00;;;;;;6186081;23;20135;-82
2021/11/11 07:05:51;;;;;;;1.95;1.20;;;19.50;60.10;;;;;;6160279;23;20599;-81
2021/11/11 07:08:17;;;;;;;2.35;1.55;;;19.50;60.30;;;;;;6185869;23;20135;-81
2021/11/11 07:10:44;;;;;;;2.03;1.15;;;19.50;60.10;;;;;;6159743;23;20198;-82
2021/11/11 07:13:09;;;;;;;3.88;1.70;;;19.60;60.30;;;;;;6184409;23;20210;-81
2021/11/11 07:15:36;;;;;;;4.25;1.60;;;19.60;60.00;;;;;;6184154;23;20151;-82
2021/11/11 07:18:02;;;;;;;1.65;1.10;;;19.60;60.10;;;;;;6184403;23;20161;-82
2021/11/11 07:20:27;;;;;;;2.35;1.33;;;19.50;60.00;;;;;;6184549;23;20174;-81
2021/11/11 07:22:58;;;;;;;2.67;1.48;;;19.60;60.10;;;;;;6184322;23;20135;-82
2021/11/11 07:25:24;;;;;;;2.88;1.20;;;19.60;60.00;;;;;;6184520;23;20166;-81
2021/11/11 07:27:50;;;;;;;1.83;1.05;;;19.60;60.00;;;;;;6185946;23;20135;-82
2021/11/11 07:30:16;;;;;;;1.83;1.23;;;19.60;60.00;;;;;;6184384;23;20208;-81
2021/11/11 07:32:42;;;;;;;1.98;1.35;;;19.70;60.00;;;;;;6184500;23;20134;-82
2021/11/11 07:35:09;;;;;;;1.60;1.20;;;19.60;59.80;;;;;;6184657;23;20147;-82
2021/11/11 07:37:36;;;;;;;3.58;1.30;;;19.70;59.80;;;;;;6184411;23;20158;-82
2021/11/11 07:40:04;;;;;;;4.22;1.40;;;19.70;59.80;;;;;;6185735;23;20143;-82
2021/11/11 07:42:29;;;;;;;3.58;1.35;;;19.70;59.70;;;;;;6185673;23;20461;-82
2021/11/11 07:44:55;;;;;;;2.95;1.30;;;19.70;59.70;;;;;;6184688;23;20589;-82
2021/11/11 07:47:28;;;;;;;3.35;1.38;;;19.70;59.70;;;;;;6184156;23;20151;-82
2021/11/11 07:49:56;;;;;;;3.45;1.40;;;19.70;59.60;;;;;;6184733;23;20155;-82
2021/11/11 07:52:22;;;;;;;1.45;1.20;;;19.80;59.40;;;;;;6184293;23;20131;-82
2021/11/11 07:54:48;;;;;;;3.35;1.38;;;19.80;59.50;;;;;;6183956;23;20598;-83
2021/11/11 07:57:14;;;;;;;1.52;1.15;;;19.80;58.80;;;;;;6185645;23;20142;-82
2021/11/11 07:59:41;;;;;;;1.65;1.27;;;19.80;59.30;;;;;;6184906;23;20154;-82
2021/11/11 08:02:07;;;;;;;2.97;1.50;;;19.80;58.90;;;;;;6184088;23;20127;-82
2021/11/11 08:04:33;;;;;;;2.92;1.35;;;19.70;59.10;;;;;;6209445;23;20166;-82
2021/11/11 08:06:58;;;;;;;3.10;1.20;;;19.80;59.30;;;;;;6184162;23;20189;-82
2021/11/11 08:09:24;;;;;;;2.95;1.35;;;19.80;58.40;;;;;;6188835;23;20241;-81
2021/11/11 08:11:50;;;;;;;2.03;1.00;;;19.80;58.80;;;;;;6214332;23;20156;-82
2021/11/11 08:14:16;;;;;;;4.32;1.42;;;19.80;58.70;;;;;;6164043;23;20178;-82
2021/11/11 08:16:42;;;;;;;3.35;1.50;;;19.80;59.10;;;;;;6189072;23;20131;-81
2021/11/11 08:19:07;;;;;;;2.08;1.30;;;19.80;59.00;;;;;;6189366;23;20137;-82
2021/11/11 08:21:33;;;;;;;1.48;1.15;;;19.80;59.00;;;;;;6214032;23;20146;-82
2021/11/11 08:23:59;;;;;;;2.67;1.40;;;19.80;59.10;;;;;;6215834;23;20135;-82
2021/11/11 08:26:25;;;;;;;3.08;1.40;;;19.80;59.20;;;;;;6189223;23;20141;-81
2021/11/11 08:28:51;;;;;;;1.67;1.42;;;19.80;59.30;;;;;;6189979;23;20138;-81
2021/11/11 08:31:17;;;;;;;1.58;1.10;;;19.80;58.90;;;;;;6190958;23;20165;-82
2021/11/11 08:33:43;;;;;;;4.05;1.42;;;19.80;59.00;;;;;;6217106;23;20237;-82
2021/11/11 08:36:09;;;;;;;1.45;1.10;;;19.80;58.70;;;;;;6166635;23;20242;-82
2021/11/11 08:38:35;;;;;;;2.00;1.13;;;19.90;58.90;;;;;;6191427;23;20588;-82
2021/11/11 08:41:00;;;;;;;2.35;1.27;;;19.90;58.70;;;;;;6167071;23;20146;-82
2021/11/11 08:43:26;;;;;;;2.28;1.25;;;19.80;58.60;;;;;;6193465;23;20154;-82
2021/11/11 08:45:51;;;;;;;2.08;1.00;;;19.80;58.50;;;;;;6193329;23;20153;-82
2021/11/11 08:48:18;;;;;;;2.30;1.38;;;19.90;58.20;;;;;;6193725;23;20168;-82
2021/11/11 08:50:43;;;;;;;2.13;1.42;;;19.90;58.30;;;;;;6219771;23;20141;-82
2021/11/11 08:53:12;;;;;;;4.40;1.25;;;19.90;58.30;;;;;;6221099;23;20166;-82
2021/11/11 08:55:37;;;;;;;1.90;1.20;;;19.90;58.10;;;;;;6193786;23;20554;-82
2021/11/11 08:58:04;;;;;;;3.40;1.13;;;19.90;58.00;;;;;;6193217;23;20181;-82
2021/11/11 09:00:33;;;;;;;1.83;1.17;;;19.90;58.40;;;;;;6168148;23;20534;-82
2021/11/11 09:03:00;;;;;;;2.72;1.20;;;19.90;58.60;;;;;;6192734;23;20139;-82
2021/11/11 09:05:26;;;;;;;2.75;1.40;;;19.90;57.80;;;;;;6191362;23;20200;-81
2021/11/11 09:07:52;;;;;;;2.55;1.30;;;20.00;58.20;;;;;;6217204;23;20134;-81
2021/11/11 09:10:18;;;;;;;1.88;1.40;;;19.90;58.60;;;;;;6215867;23;20205;-81
2021/11/11 09:12:45;;;;;;;3.28;1.38;;;19.90;58.30;;;;;;6190348;23;20169;-81
2021/11/11 09:15:12;;;;;;;2.20;1.20;;;19.90;58.50;;;;;;6165659;23;20245;-81
2021/11/11 09:17:39;;;;;;;1.70;1.00;;;19.90;57.80;;;;;;6190692;23;20591;-82
2021/11/11 09:20:08;;;;;;;1.55;1.10;;;19.90;58.60;;;;;;6215283;23;20165;-82
2021/11/11 09:22:34;;;;;;;1.55;1.00;;;19.90;58.40;;;;;;6195059;23;20462;-82
2021/11/11 09:25:02;;;;;;;1.27;1.05;;;19.90;57.80;;;;;;6193461;23;20458;-82
2021/11/11 09:27:29;;;;;;;4.10;1.00;;;19.90;58.30;;;;;;6193621;23;20130;-82
2021/11/11 09:29:55;;;;;;;2.80;1.20;;;19.90;57.80;;;;;;6217922;23;20245;-82
2021/11/11 09:32:21;;;;;;;2.03;1.10;;;19.90;57.90;;;;;;6194581;23;20158;-82
2021/11/11 09:34:47;;;;;;;2.25;1.25;;;19.90;58.20;;;;;;6220586;23;20173;-82
2021/11/11 09:37:13;;;;;;;2.78;1.15;;;20.00;58.20;;;;;;6193238;23;20466;-82
2021/11/11 09:39:38;;;;;;;2.20;1.23;;;20.00;58.20;;;;;;6165838;23;20196;-81
2021/11/11 09:42:07;;;;;;;2.95;1.50;;;19.90;58.10;;;;;;6191478;23;20582;-82
2021/11/11 09:44:33;;;;;;;2.80;1.30;;;20.00;58.20;;;;;;6217335;23;20185;-82
2021/11/11 09:46:59;;;;;;;2.25;1.50;;;20.00;58.20;;;;;;6165778;23;20158;-82
2021/11/11 09:49:25;;;;;;;1.92;1.30;;;20.00;57.90;;;;;;6191248;23;20645;-81
2021/11/11 09:51:50;;;;;;;1.80;1.20;;;20.00;57.70;;;;;;6165503;23;20616;-82
2021/11/11 09:59:47;;;;;;;2.65;1.10;;;20.00;58.10;;;;;;6193219;23;20130;-82
2021/11/11 10:02:13;;;;;;;3.03;1.35;;;19.90;57.70;;;;;;6165180;23;20160;-82
2021/11/11 10:04:39;;;;;;;1.30;1.13;;;20.00;57.60;;;;;;6216643;23;20157;-82
2021/11/11 10:07:05;;;;;;;1.63;1.00;;;19.90;57.40;;;;;;6165609;23;20160;-81
2021/11/11 10:09:30;;;;;;;2.10;1.05;;;19.90;58.20;;;;;;6217278;23;20189;-82
2021/11/11 10:11:59;;;;;;;1.92;1.17;;;19.90;58.60;;;;;;6165737;23;20200;-82
2021/11/11 10:14:29;;;;;;;2.03;1.20;;;20.00;58.00;;;;;;6191345;23;20170;-82
2021/11/11 10:16:59;;;;;;;1.80;1.20;;;20.00;57.80;;;;;;6167368;23;20478;-82
2021/11/11 10:19:26;;;;;;;1.92;1.10;;;20.00;57.90;;;;;;6190843;23;20169;-82
2021/11/11 10:21:56;;;;;;;2.90;1.10;;;20.00;57.60;;;;;;6190567;23;20130;-82
2021/11/11 10:24:49;;;;;;;2.60;1.40;;;19.90;58.10;;;;;;6191200;23;20130;-82
2021/11/11 10:27:29;;;;;;;2.03;1.40;;;20.00;57.40;;;;;;6175324;23;20609;-82
2021/11/11 10:30:06;;;;;;;1.00;0.90;;;20.00;57.80;;;;;;6192745;23;20134;-81
2021/11/11 10:32:36;;;;;;;2.28;1.20;;;20.00;57.60;;;;;;6192256;23;20180;-82
2021/11/11 10:35:17;;;;;;;2.22;1.30;;;20.00;57.90;;;;;;6189693;23;20133;-82
2021/11/11 10:38:02;;;;;;;2.33;1.10;;;19.90;58.10;;;;;;6165033;23;20146;-82
2021/11/11 10:40:31;;;;;;;1.75;1.30;;;19.90;57.90;;;;;;6166994;23;20142;-82
2021/11/11 10:43:00;;;;;;;1.95;1.30;;;19.90;57.80;;;;;;6215969;23;20134;-82
2021/11/11 10:45:29;;;;;;;2.28;1.27;;;20.00;58.00;;;;;;6215911;23;20130;-82
2021/11/11 10:47:57;;;;;;;2.30;1.30;;;20.00;57.90;;;;;;6189971;23;20138;-82
2021/11/11 10:50:25;;;;;;;1.77;1.20;;;20.00;57.90;;;;;;6189806;23;20138;-82
2021/11/11 10:52:54;;;;;;;2.35;1.30;;;20.00;58.00;;;;;;6191171;23;20574;-81
2021/11/11 10:55:26;;;;;;;1.42;1.13;;;20.00;58.10;;;;;;6191017;23;20130;-82
2021/11/11 10:58:04;;;;;;;1.75;1.30;;;20.00;58.10;;;;;;6191919;23;20214;-82
2021/11/11 11:00:36;;;;;;;2.72;1.13;;;20.00;57.80;;;;;;6165607;23;20566;-82
2021/11/11 11:03:13;;;;;;;1.95;1.20;;;20.00;57.90;;;;;;6191327;23;20134;-82
2021/11/11 11:05:55;;;;;;;3.15;1.27;;;20.00;57.90;;;;;;6171094;23;20157;-85
2021/11/11 11:08:40;;;;;;;2.92;1.10;;;20.00;57.90;;;;;;6198186;23;20130;-81
2021/11/11 11:11:18;;;;;;;2.65;1.30;;;20.00;57.80;;;;;;6189279;23;20182;-80
2021/11/11 11:13:49;;;;;;;3.00;1.48;;;20.00;57.60;;;;;;6185248;23;20229;-81
2021/11/11 11:16:16;;;;;;;1.38;1.20;;;20.00;57.30;;;;;;6210397;23;20154;-81
2021/11/11 11:18:48;;;;;;;2.47;1.20;;;20.00;57.50;;;;;;6159578;23;20150;-81
2021/11/11 11:21:16;;;;;;;2.50;1.30;;;20.00;57.50;;;;;;6184344;23;20602;-81
2021/11/11 11:23:45;;;;;;;2.00;1.25;;;20.00;57.50;;;;;;6185113;23;20158;-82
2021/11/11 11:26:14;;;;;;;1.88;1.00;;;20.00;57.60;;;;;;6184148;23;20189;-81
2021/11/11 11:28:49;;;;;;;2.50;1.15;;;20.00;57.40;;;;;;6184356;23;20499;-82
2021/11/11 11:31:26;;;;;;;1.50;1.02;;;20.00;57.60;;;;;;6185808;23;20138;-82
2021/11/11 11:33:52;;;;;;;3.13;1.30;;;20.00;57.30;;;;;;6159220;23;20171;-81
2021/11/11 11:36:32;;;;;;;2.45;1.33;;;20.00;57.50;;;;;;6184298;23;20142;-82
2021/11/11 11:38:58;;;;;;;2.22;1.00;;;20.00;57.50;;;;;;6184652;23;20551;-82
2021/11/11 11:41:33;;;;;;;2.30;1.30;;;20.00;57.20;;;;;;6184593;23;20162;-82
2021/11/11 11:44:29;;;;;;;1.77;1.20;;;20.00;57.40;;;;;;6184176;23;20634;-82
2021/11/11 11:47:00;;;;;;;1.30;1.17;;;20.00;57.70;;;;;;6185459;23;20221;-82
2021/11/11 11:49:26;;;;;;;2.42;1.08;;;20.00;57.50;;;;;;6184162;23;20170;-82
2021/11/11 11:51:52;;;;;;;3.13;1.30;;;20.00;57.80;;;;;;6184972;23;20139;-82
2021/11/11 11:54:24;;;;;;;1.75;1.20;;;20.00;57.40;;;;;;6185267;23;20558;-82
2021/11/11 11:56:55;;;;;;;3.05;1.40;;;19.90;57.50;;;;;;6160942;23;20157;-81
2021/11/11 11:59:24;;;;;;;1.92;1.25;;;20.00;57.50;;;;;;6185704;23;20154;-81
2021/11/11 12:02:06;;;;;;;2.70;1.33;;;19.90;57.70;;;;;;6184076;23;20131;-81
2021/11/11 12:09:58;;;;;;;2.28;1.13;;;20.00;57.50;;;;;;6184228;23;20507;-81
2021/11/11 12:12:53;;;;;;;2.75;1.38;;;20.00;57.50;;;;;;6185736;23;20136;-81
2021/11/11 12:15:34;;;;;;;2.08;1.10;;;20.00;57.50;;;;;;6184057;23;20494;-82
2021/11/11 12:18:30;;;;;;;3.03;1.17;;;20.00;57.50;;;;;;6183926;23;20250;-81
2021/11/11 12:28:34;;;;;;;1.38;1.15;;;19.90;56.70;;;;;;6185748;23;20534;-82
2021/11/11 12:29:49;;;;;;;1.08;0.93;;;20.00;56.90;;;;;;6184451;23;20135;-82
2021/11/11 12:40:21;;;;;;;2.13;1.20;;;20.00;57.20;;;;;;6187731;23;20451;-81
2021/11/11 12:42:54;;;;;;;3.03;1.27;;;20.00;57.00;;;;;;6184853;23;20138;-80
2021/11/11 12:45:23;;;;;;;1.67;1.13;;;20.00;57.20;;;;;;6185329;23;20155;-81
2021/11/11 12:47:55;;;;;;;3.00;1.33;;;20.00;57.10;;;;;;6188292;23;20158;-80
2021/11/11 12:50:42;;;;;;;1.60;1.00;;;20.00;57.20;;;;;;6183514;23;20131;-82
2021/11/11 12:53:42;;;;;;;1.75;1.02;;;20.00;57.40;;;;;;6183033;23;20182;-81
2021/11/11 12:56:11;;;;;;;1.35;1.10;;;20.10;57.30;;;;;;6163895;23;20253;-82
2021/11/11 12:58:39;;;;;;;2.92;1.00;;;20.10;56.70;;;;;;6184003;23;20134;-81
2021/11/11 13:01:09;;;;;;;1.40;1.10;;;20.00;56.60;;;;;;6185930;23;20598;-82
2021/11/11 13:03:54;;;;;;;2.10;1.00;;;20.10;56.90;;;;;;6187000;23;20139;-81
2021/11/11 13:06:35;;;;;;;1.75;1.00;;;20.10;56.70;;;;;;6183970;23;20179;-81
2021/11/11 13:09:06;;;;;;;1.85;1.10;;;20.20;56.70;;;;;;6187264;23;20135;-81
2021/11/11 13:11:33;;;;;;;1.70;1.00;;;20.10;56.90;;;;;;6185376;23;20642;-81
2021/11/11 13:14:14;;;;;;;3.75;1.20;;;20.10;57.20;;;;;;6185448;23;20245;-81
2021/11/11 13:16:41;;;;;;;2.47;1.00;;;20.10;57.30;;;;;;6186907;23;20154;-82
2021/11/11 13:19:07;;;;;;;3.97;1.02;;;20.20;57.20;;;;;;6163912;23;20151;-81
2021/11/11 13:21:44;;;;;;;3.65;1.13;;;20.10;57.40;;;;;;6187009;23;20143;-81
2021/11/11 13:24:23;;;;;;;1.83;1.10;;;20.10;57.40;;;;;;6187220;23;20185;-83
2021/11/11 13:27:21;;;;;;;1.45;1.20;;;20.10;57.30;;;;;;6186333;23;20138;-82
2021/11/11 13:58:49;;;;;;;1.67;1.30;;;20.20;57.20;;;;;;6184994;23;20174;-82
2021/11/11 14:00:29;;;;;;;6.68;1.25;;;20.10;56.90;;;;;;6184347;23;20571;-82
2021/11/11 14:03:23;;;;;;;2.88;1.23;;;20.20;57.10;;;;;;6187297;23;20174;-82